createdAt,value
2019-03-15T00:00:43.103Z,83
2019-03-15T00:01:43.055Z,83
2019-03-15T00:02:43.067Z,83
2019-03-15T00:03:43.123Z,83
2019-03-15T00:04:43.080Z,83
2019-03-15T00:05:43.125Z,83
2019-03-15T00:06:43.107Z,82
2019-03-15T00:07:43.107Z,82
2019-03-15T00:08:43.153Z,82
2019-03-15T00:09:43.128Z,82
2019-03-15T00:10:43.124Z,83
2019-03-15T00:11:43.150Z,82
2019-03-15T00:12:43.134Z,82
2019-03-15T00:13:43.159Z,82
2019-03-15T00:14:43.165Z,82
2019-03-15T00:15:43.175Z,82
2019-03-15T00:16:43.200Z,82
2019-03-15T00:17:43.286Z,82
2019-03-15T00:18:43.157Z,82
2019-03-15T00:19:43.276Z,81
2019-03-15T00:20:43.203Z,81
2019-03-15T00:21:43.211Z,81
2019-03-15T00:22:43.206Z,81
2019-03-15T00:23:43.285Z,81
2019-03-15T00:24:43.214Z,81
2019-03-15T00:25:43.348Z,81
2019-03-15T00:26:43.309Z,81
2019-03-15T00:27:43.245Z,81
2019-03-15T00:28:43.274Z,81
2019-03-15T00:29:43.353Z,81
2019-03-15T00:30:43.276Z,81
2019-03-15T00:31:43.280Z,81
2019-03-15T00:32:43.272Z,81
2019-03-15T00:33:45.519Z,80
2019-03-15T00:34:43.277Z,81
2019-03-15T00:35:43.293Z,81
2019-03-15T00:36:43.534Z,80
2019-03-15T00:37:43.292Z,80
2019-03-15T00:38:43.320Z,81
2019-03-15T00:39:43.282Z,79
2019-03-15T00:40:43.323Z,79
2019-03-15T00:41:43.343Z,79
2019-03-15T00:42:43.351Z,79
2019-03-15T00:43:43.332Z,79
2019-03-15T00:44:43.328Z,79
2019-03-15T00:45:43.359Z,79
2019-03-15T00:46:43.354Z,79
2019-03-15T00:47:43.361Z,79
2019-03-15T00:48:43.432Z,80
2019-03-15T00:49:43.368Z,80
2019-03-15T00:50:43.342Z,80
2019-03-15T00:51:43.387Z,80
2019-03-15T00:52:43.356Z,81
2019-03-15T00:53:43.370Z,81
2019-03-15T00:54:43.384Z,81
2019-03-15T00:55:43.369Z,82
2019-03-15T00:56:43.387Z,82
2019-03-15T00:57:43.366Z,83
2019-03-15T00:58:43.379Z,83
2019-03-15T00:59:43.394Z,83
2019-03-15T01:00:43.404Z,83
2019-03-15T01:01:43.485Z,83
2019-03-15T01:02:44.290Z,83
2019-03-15T01:03:43.442Z,84
2019-03-15T01:04:43.446Z,83
2019-03-15T01:05:43.449Z,83
2019-03-15T01:06:43.431Z,83
2019-03-15T01:07:43.447Z,82
2019-03-15T01:08:43.457Z,82
2019-03-15T01:09:43.447Z,82
2019-03-15T01:10:43.427Z,81
2019-03-15T01:11:45.466Z,80
2019-03-15T01:12:43.500Z,80
2019-03-15T01:13:43.462Z,80
2019-03-15T01:14:43.463Z,80
2019-03-15T01:15:43.480Z,79
2019-03-15T01:16:43.544Z,79
2019-03-15T01:17:43.484Z,79
2019-03-15T01:18:44.564Z,78
2019-03-15T01:19:43.502Z,78
2019-03-15T01:20:43.499Z,78
2019-03-15T01:21:43.522Z,77
2019-03-15T01:22:43.507Z,77
2019-03-15T01:23:45.825Z,77
2019-03-15T01:24:43.622Z,76
2019-03-15T01:25:43.537Z,77
2019-03-15T01:26:43.540Z,76
2019-03-15T01:27:43.683Z,76
2019-03-15T01:28:43.520Z,76
2019-03-15T01:29:43.547Z,76
2019-03-15T01:30:43.552Z,75
2019-03-15T01:31:43.533Z,76
2019-03-15T01:32:43.527Z,77
2019-03-15T01:33:43.583Z,77
2019-03-15T01:34:43.555Z,77
2019-03-15T01:35:43.565Z,78
2019-03-15T01:36:43.582Z,78
2019-03-15T01:37:43.576Z,78
2019-03-15T01:38:43.603Z,79
2019-03-15T01:39:43.593Z,79
2019-03-15T01:40:43.637Z,78
2019-03-15T01:41:43.575Z,79
2019-03-15T01:42:43.606Z,78
2019-03-15T01:43:43.582Z,78
2019-03-15T01:44:44.220Z,78
2019-03-15T01:45:43.702Z,79
2019-03-15T01:46:43.652Z,79
2019-03-15T01:47:43.744Z,79
2019-03-15T01:48:43.652Z,79
2019-03-15T01:49:44.644Z,79
2019-03-15T01:50:43.642Z,80
2019-03-15T01:51:43.663Z,79
2019-03-15T01:52:45.897Z,79
2019-03-15T01:53:43.683Z,79
2019-03-15T01:54:43.686Z,78
2019-03-15T01:55:43.681Z,78
2019-03-15T01:56:43.711Z,78
2019-03-15T01:57:43.690Z,78
2019-03-15T01:58:43.687Z,78
2019-03-15T01:59:43.681Z,78
2019-03-15T02:00:44.770Z,79
2019-03-15T02:01:43.687Z,78
2019-03-15T02:02:43.697Z,78
2019-03-15T02:03:43.705Z,78
2019-03-15T02:04:43.696Z,78
2019-03-15T02:05:43.714Z,78
2019-03-15T02:06:43.793Z,78
2019-03-15T02:07:43.730Z,78
2019-03-15T02:08:43.712Z,78
2019-03-15T02:09:44.469Z,77
2019-03-15T02:10:43.712Z,78
2019-03-15T02:11:43.716Z,78
2019-03-15T02:12:43.746Z,78
2019-03-15T02:13:43.764Z,78
2019-03-15T02:14:43.715Z,78
2019-03-15T02:15:43.782Z,78
2019-03-15T02:16:43.812Z,77
2019-03-15T02:17:43.753Z,77
2019-03-15T02:18:44.332Z,77
2019-03-15T02:19:43.812Z,77
2019-03-15T02:20:43.783Z,77
2019-03-15T02:21:43.753Z,77
2019-03-15T02:22:43.777Z,77
2019-03-15T02:23:46.003Z,77
2019-03-15T02:24:43.794Z,76
2019-03-15T02:25:43.813Z,76
2019-03-15T02:26:43.915Z,76
2019-03-15T02:27:43.814Z,75
2019-03-15T02:28:43.825Z,74
2019-03-15T02:29:44.012Z,75
2019-03-15T02:30:43.861Z,74
2019-03-15T02:31:43.858Z,75
2019-03-15T02:32:43.872Z,75
2019-03-15T02:33:43.877Z,74
2019-03-15T02:34:43.888Z,74
2019-03-15T02:35:43.886Z,74
2019-03-15T02:36:43.883Z,74
2019-03-15T02:37:43.863Z,74
2019-03-15T02:38:43.901Z,74
2019-03-15T02:39:43.970Z,73
2019-03-15T02:40:43.903Z,73
2019-03-15T02:41:43.921Z,73
2019-03-15T02:42:43.907Z,74
2019-03-15T02:43:43.922Z,73
2019-03-15T02:44:43.970Z,73
2019-03-15T02:45:43.920Z,73
2019-03-15T02:46:43.970Z,73
2019-03-15T02:47:43.929Z,74
2019-03-15T02:48:43.958Z,73
2019-03-15T02:49:43.960Z,73
2019-03-15T02:50:43.939Z,72
2019-03-15T02:51:43.978Z,72
2019-03-15T02:52:43.971Z,73
2019-03-15T02:53:43.983Z,73
2019-03-15T02:54:43.965Z,72
2019-03-15T02:55:43.969Z,73
2019-03-15T02:56:43.968Z,73
2019-03-15T02:57:43.977Z,73
2019-03-15T02:58:44.005Z,73
2019-03-15T02:59:43.995Z,72
2019-03-15T03:00:44.045Z,71
2019-03-15T03:01:44.000Z,72
2019-03-15T03:02:44.009Z,72
2019-03-15T03:03:44.006Z,72
2019-03-15T03:04:44.005Z,72
2019-03-15T03:05:44.026Z,71
2019-03-15T03:06:44.029Z,72
2019-03-15T03:07:44.033Z,73
2019-03-15T03:08:44.082Z,72
2019-03-15T03:09:44.096Z,72
2019-03-15T03:10:44.063Z,72
2019-03-15T03:11:44.083Z,72
2019-03-15T03:12:44.300Z,71
2019-03-15T03:13:44.190Z,72
2019-03-15T03:14:44.074Z,72
2019-03-15T03:15:44.103Z,72
2019-03-15T03:16:44.142Z,72
2019-03-15T03:17:44.101Z,72
2019-03-15T03:18:44.149Z,72
2019-03-15T03:19:44.115Z,72
2019-03-15T03:20:44.231Z,72
2019-03-15T03:21:44.190Z,72
2019-03-15T03:22:44.141Z,72
2019-03-15T03:23:44.151Z,72
2019-03-15T03:24:44.155Z,71
2019-03-15T03:25:44.502Z,71
2019-03-15T03:26:44.219Z,71
2019-03-15T03:27:44.239Z,71
2019-03-15T03:28:44.186Z,71
2019-03-15T03:29:44.220Z,71
2019-03-15T03:30:45.940Z,70
2019-03-15T03:31:45.231Z,70
2019-03-15T03:32:44.870Z,71
2019-03-15T03:33:44.227Z,71
2019-03-15T03:34:44.260Z,71
2019-03-15T03:35:44.247Z,70
2019-03-15T03:36:44.228Z,69
2019-03-15T03:37:45.104Z,69
2019-03-15T03:38:44.273Z,69
2019-03-15T03:39:44.287Z,69
2019-03-15T03:40:44.283Z,69
2019-03-15T03:41:44.307Z,69
2019-03-15T03:42:44.319Z,68
2019-03-15T03:43:44.272Z,68
2019-03-15T03:44:44.271Z,68
2019-03-15T03:45:45.318Z,69
2019-03-15T03:46:44.305Z,68
2019-03-15T03:47:44.310Z,68
2019-03-15T03:48:44.328Z,68
2019-03-15T03:49:44.331Z,69
2019-03-15T03:50:44.344Z,68
2019-03-15T03:51:44.334Z,68
2019-03-15T03:52:44.290Z,68
2019-03-15T03:53:44.325Z,68
2019-03-15T03:54:44.346Z,68
2019-03-15T03:55:44.347Z,69
2019-03-15T03:56:44.339Z,68
2019-03-15T03:57:44.372Z,68
2019-03-15T03:58:44.346Z,69
2019-03-15T03:59:44.392Z,68
2019-03-15T04:00:44.351Z,68
2019-03-15T04:01:44.356Z,69
2019-03-15T04:02:44.384Z,69
2019-03-15T04:03:44.356Z,68
2019-03-15T04:04:44.400Z,68
2019-03-15T04:05:44.401Z,68
2019-03-15T04:06:44.383Z,68
2019-03-15T04:07:44.404Z,67
2019-03-15T04:08:44.436Z,67
2019-03-15T04:09:44.411Z,67
2019-03-15T04:10:44.422Z,67
2019-03-15T04:11:54.584Z,67
2019-03-15T04:12:44.423Z,67
2019-03-15T04:13:44.405Z,67
2019-03-15T04:14:44.406Z,67
2019-03-15T04:15:44.448Z,68
2019-03-15T04:16:44.484Z,67
2019-03-15T04:17:44.425Z,67
2019-03-15T04:18:44.439Z,67
2019-03-15T04:19:44.452Z,67
2019-03-15T04:20:44.495Z,66
2019-03-15T04:21:44.598Z,66
2019-03-15T04:22:44.462Z,66
2019-03-15T04:23:44.472Z,66
2019-03-15T04:24:44.518Z,66
2019-03-15T04:25:44.488Z,67
2019-03-15T04:26:44.490Z,66
2019-03-15T04:27:44.516Z,66
2019-03-15T04:28:44.528Z,66
2019-03-15T04:29:44.532Z,66
2019-03-15T04:30:44.513Z,67
2019-03-15T04:31:44.516Z,66
2019-03-15T04:32:44.562Z,66
2019-03-15T04:33:44.583Z,66
2019-03-15T04:34:44.529Z,66
2019-03-15T04:35:44.557Z,65
2019-03-15T04:36:44.821Z,65
2019-03-15T04:37:44.574Z,66
2019-03-15T04:38:44.565Z,66
2019-03-15T04:39:44.636Z,66
2019-03-15T04:40:44.638Z,65
2019-03-15T04:41:44.622Z,65
2019-03-15T04:42:44.708Z,65
2019-03-15T04:43:45.643Z,65
2019-03-15T04:44:44.621Z,66
2019-03-15T04:45:44.617Z,66
2019-03-15T04:46:44.612Z,66
2019-03-15T04:47:44.623Z,65
2019-03-15T04:48:44.717Z,65
2019-03-15T04:49:44.664Z,66
2019-03-15T04:50:44.644Z,65
2019-03-15T04:51:44.711Z,66
2019-03-15T04:52:44.651Z,65
2019-03-15T04:53:44.668Z,66
2019-03-15T04:54:44.738Z,65
2019-03-15T04:55:44.701Z,66
2019-03-15T04:56:44.689Z,66
2019-03-15T04:57:44.693Z,66
2019-03-15T04:58:44.726Z,66
2019-03-15T04:59:44.693Z,66
2019-03-15T05:00:46.901Z,66
2019-03-15T05:01:46.948Z,65
2019-03-15T05:02:44.708Z,65
2019-03-15T05:03:44.726Z,65
2019-03-15T05:04:44.717Z,65
2019-03-15T05:05:44.718Z,64
2019-03-15T05:06:44.692Z,65
2019-03-15T05:07:44.758Z,64
2019-03-15T05:08:44.763Z,65
2019-03-15T05:09:44.743Z,65
2019-03-15T05:10:44.796Z,65
2019-03-15T05:11:44.764Z,64
2019-03-15T05:12:44.862Z,65
2019-03-15T05:13:44.786Z,64
2019-03-15T05:14:44.805Z,64
2019-03-15T05:15:44.858Z,65
2019-03-15T05:16:44.869Z,65
2019-03-15T05:17:44.859Z,64
2019-03-15T05:18:44.875Z,64
2019-03-15T05:19:44.884Z,64
2019-03-15T05:20:44.883Z,64
2019-03-15T05:21:44.908Z,64
2019-03-15T05:22:44.906Z,64
2019-03-15T05:23:44.941Z,63
2019-03-15T05:24:44.922Z,64
2019-03-15T05:25:44.920Z,64
2019-03-15T05:26:44.954Z,64
2019-03-15T05:27:44.962Z,64
2019-03-15T05:28:44.981Z,64
2019-03-15T05:29:45.095Z,63
2019-03-15T05:30:45.013Z,63
2019-03-15T05:31:45.008Z,63
2019-03-15T05:32:45.057Z,63
2019-03-15T05:33:45.074Z,64
2019-03-15T05:34:45.084Z,64
2019-03-15T05:35:45.121Z,64
2019-03-15T05:36:45.086Z,63
2019-03-15T05:37:45.092Z,63
2019-03-15T05:38:45.122Z,63
2019-03-15T05:39:45.223Z,63
2019-03-15T05:40:45.195Z,63
2019-03-15T05:41:45.192Z,62
2019-03-15T05:42:45.179Z,62
2019-03-15T05:43:45.233Z,63
2019-03-15T05:45:17.171Z,62
2019-03-15T05:45:45.256Z,62
2019-03-15T05:46:45.270Z,62
2019-03-15T05:47:45.285Z,62
2019-03-15T05:48:45.281Z,62
2019-03-15T05:49:45.301Z,62
2019-03-15T05:50:45.324Z,62
2019-03-15T05:51:45.308Z,62
2019-03-15T05:52:45.356Z,62
2019-03-15T05:53:45.383Z,62
2019-03-15T05:54:45.481Z,62
2019-03-15T05:55:45.415Z,62
2019-03-15T05:56:45.425Z,62
2019-03-15T05:57:47.882Z,61
2019-03-15T05:58:45.437Z,62
2019-03-15T05:59:45.450Z,63
2019-03-15T06:00:45.462Z,62
2019-03-15T06:01:45.481Z,62
2019-03-15T06:02:45.482Z,62
2019-03-15T06:03:48.723Z,62
2019-03-15T06:04:45.551Z,62
2019-03-15T06:05:45.522Z,63
2019-03-15T06:06:45.539Z,63
2019-03-15T06:07:45.563Z,63
2019-03-15T06:08:46.579Z,63
2019-03-15T06:09:45.613Z,63
2019-03-15T06:10:45.627Z,63
2019-03-15T06:11:45.604Z,63
2019-03-15T06:12:46.679Z,63
2019-03-15T06:13:46.182Z,63
2019-03-15T06:14:46.982Z,62
2019-03-15T06:15:45.677Z,62
2019-03-15T06:16:45.799Z,63
2019-03-15T06:18:45.705Z,63
2019-03-15T06:18:50.620Z,63
2019-03-15T06:19:45.698Z,63
2019-03-15T06:20:45.721Z,63
2019-03-15T06:21:45.742Z,63
2019-03-15T06:22:45.720Z,63
2019-03-15T06:23:45.714Z,63
2019-03-15T06:24:45.765Z,62
2019-03-15T06:25:45.749Z,62
2019-03-15T06:26:45.782Z,62
2019-03-15T06:27:45.764Z,62
2019-03-15T06:28:45.747Z,63
2019-03-15T06:29:45.763Z,63
2019-03-15T06:30:45.877Z,62
2019-03-15T06:31:45.778Z,62
2019-03-15T06:32:45.764Z,62
2019-03-15T06:33:45.774Z,62
2019-03-15T06:34:45.798Z,62
2019-03-15T06:35:45.811Z,62
2019-03-15T06:36:48.036Z,62
2019-03-15T06:37:45.851Z,62
2019-03-15T06:38:45.803Z,62
2019-03-15T06:39:45.816Z,62
2019-03-15T06:40:45.809Z,63
2019-03-15T06:41:45.863Z,63
2019-03-15T06:42:45.927Z,62
2019-03-15T06:43:45.934Z,63
2019-03-15T06:44:57.272Z,63
2019-03-15T06:45:45.824Z,63
2019-03-15T06:46:48.352Z,63
2019-03-15T06:47:45.877Z,62
2019-03-15T06:48:45.895Z,62
2019-03-15T06:49:45.885Z,62
2019-03-15T06:50:45.873Z,62
2019-03-15T06:51:45.861Z,62
2019-03-15T06:52:45.893Z,62
2019-03-15T06:53:47.862Z,62
2019-03-15T06:54:45.916Z,62
2019-03-15T06:55:49.177Z,63
2019-03-15T06:56:45.911Z,62
2019-03-15T06:57:45.985Z,63
2019-03-15T06:58:45.965Z,63
2019-03-15T06:59:45.965Z,63
2019-03-15T07:00:46.008Z,63
2019-03-15T07:01:45.961Z,62
2019-03-15T07:02:46.309Z,63
2019-03-15T07:03:45.995Z,62
2019-03-15T07:04:46.028Z,62
2019-03-15T07:05:46.037Z,62
2019-03-15T07:06:46.004Z,62
2019-03-15T07:07:45.988Z,63
2019-03-15T07:08:46.008Z,62
2019-03-15T07:09:46.025Z,62
2019-03-15T07:10:46.037Z,62
2019-03-15T07:11:48.275Z,63
2019-03-15T07:12:46.017Z,61
2019-03-15T07:13:46.061Z,61
2019-03-15T07:14:46.049Z,61
2019-03-15T07:15:46.071Z,60
2019-03-15T07:16:46.134Z,61
2019-03-15T07:17:46.176Z,61
2019-03-15T07:18:46.072Z,60
2019-03-15T07:19:46.067Z,60
2019-03-15T07:20:46.630Z,59
2019-03-15T07:21:46.910Z,58
2019-03-15T07:22:46.107Z,59
2019-03-15T07:23:46.090Z,59
2019-03-15T07:24:46.130Z,59
2019-03-15T07:25:47.181Z,60
2019-03-15T07:26:46.102Z,58
2019-03-15T07:27:46.140Z,58
2019-03-15T07:28:46.117Z,58
2019-03-15T07:29:46.145Z,57
2019-03-15T07:30:46.128Z,58
2019-03-15T07:31:46.140Z,57
2019-03-15T07:32:46.129Z,57
2019-03-15T07:33:46.152Z,58
2019-03-15T07:34:46.171Z,56
2019-03-15T07:35:46.143Z,57
2019-03-15T07:36:46.209Z,57
2019-03-15T07:37:46.189Z,57
2019-03-15T07:38:46.197Z,57
2019-03-15T07:39:46.208Z,57
2019-03-15T07:40:46.203Z,58
2019-03-15T07:41:46.204Z,57
2019-03-15T07:42:46.246Z,56
2019-03-15T07:43:46.238Z,56
2019-03-15T07:44:48.843Z,56
2019-03-15T07:45:46.262Z,56
2019-03-15T07:46:46.222Z,57
2019-03-15T07:47:46.236Z,57
2019-03-15T07:48:46.263Z,58
2019-03-15T07:49:46.255Z,56
2019-03-15T07:50:46.236Z,56
2019-03-15T07:51:46.260Z,55
2019-03-15T07:52:46.244Z,55
2019-03-15T07:53:46.300Z,56
2019-03-15T07:54:46.286Z,55
2019-03-15T07:55:46.242Z,55
2019-03-15T07:56:46.264Z,55
2019-03-15T07:57:46.282Z,55
2019-03-15T07:58:46.275Z,55
2019-03-15T07:59:46.299Z,55
2019-03-15T08:00:46.266Z,55
2019-03-15T08:01:46.274Z,57
2019-03-15T08:02:46.271Z,57
2019-03-15T08:03:46.309Z,56
2019-03-15T08:04:46.295Z,55
2019-03-15T08:05:46.292Z,56
2019-03-15T08:06:46.316Z,56
2019-03-15T08:07:47.306Z,56
2019-03-15T08:08:47.451Z,56
2019-03-15T08:09:50.693Z,56
2019-03-15T08:10:46.306Z,56
2019-03-15T08:11:46.304Z,56
2019-03-15T08:12:49.284Z,57
2019-03-15T08:13:46.357Z,56
2019-03-15T08:14:46.327Z,56
2019-03-15T08:15:46.302Z,57
2019-03-15T08:16:46.383Z,56
2019-03-15T08:17:46.317Z,57
2019-03-15T08:18:46.368Z,56
2019-03-15T08:19:46.347Z,55
2019-03-15T08:20:47.399Z,55
2019-03-15T08:21:46.389Z,54
2019-03-15T08:22:46.420Z,55
2019-03-15T08:23:46.365Z,54
2019-03-15T08:24:51.194Z,54
2019-03-15T08:25:46.363Z,54
2019-03-15T08:26:46.391Z,53
2019-03-15T08:27:46.364Z,54
2019-03-15T08:28:46.413Z,54
2019-03-15T08:29:46.396Z,54
2019-03-15T08:30:46.394Z,53
2019-03-15T08:31:47.125Z,54
2019-03-15T08:32:46.417Z,53
2019-03-15T08:33:46.413Z,53
2019-03-15T08:34:48.884Z,53
2019-03-15T08:35:46.394Z,54
2019-03-15T08:36:46.444Z,54
2019-03-15T08:37:46.447Z,53
2019-03-15T08:38:47.936Z,55
2019-03-15T08:39:46.437Z,53
2019-03-15T08:40:46.424Z,55
2019-03-15T08:41:46.451Z,54
2019-03-15T08:42:46.462Z,54
2019-03-15T08:43:46.454Z,54
2019-03-15T08:44:46.440Z,53
2019-03-15T08:45:46.432Z,53
2019-03-15T08:46:46.506Z,55
2019-03-15T08:47:46.484Z,54
2019-03-15T08:48:46.489Z,54
2019-03-15T08:49:46.470Z,54
2019-03-15T08:50:46.500Z,54
2019-03-15T08:51:46.513Z,53
2019-03-15T08:52:46.573Z,55
2019-03-15T08:53:46.473Z,53
2019-03-15T08:54:46.859Z,54
2019-03-15T08:55:46.628Z,53
2019-03-15T08:56:46.530Z,53
2019-03-15T08:57:46.492Z,52
2019-03-15T08:58:46.524Z,53
2019-03-15T08:59:54.096Z,53
2019-03-15T09:00:46.493Z,53
2019-03-15T09:01:46.502Z,53
2019-03-15T09:02:46.500Z,52
2019-03-15T09:03:46.543Z,52
2019-03-15T09:04:46.507Z,53
2019-03-15T09:05:46.548Z,53
2019-03-15T09:06:46.531Z,54
2019-03-15T09:07:46.544Z,54
2019-03-15T09:08:46.573Z,53
2019-03-15T09:09:46.554Z,53
2019-03-15T09:10:46.562Z,53
2019-03-15T09:11:46.552Z,53
2019-03-15T09:12:46.635Z,52
2019-03-15T09:13:49.104Z,53
2019-03-15T09:14:46.553Z,53
2019-03-15T09:15:46.574Z,53
2019-03-15T09:16:46.617Z,53
2019-03-15T09:17:46.603Z,53
2019-03-15T09:18:46.600Z,53
2019-03-15T09:19:46.634Z,51
2019-03-15T09:20:46.617Z,52
2019-03-15T09:21:47.133Z,51
2019-03-15T09:22:46.659Z,52
2019-03-15T09:23:46.631Z,52
2019-03-15T09:24:46.657Z,53
2019-03-15T09:25:46.640Z,53
2019-03-15T09:26:46.654Z,52
2019-03-15T09:27:46.672Z,54
2019-03-15T09:28:46.700Z,54
2019-03-15T09:29:46.696Z,52
2019-03-15T09:30:46.689Z,52
2019-03-15T09:31:48.246Z,51
2019-03-15T09:32:46.687Z,53
2019-03-15T09:33:46.716Z,52
2019-03-15T09:34:46.700Z,51
2019-03-15T09:35:46.699Z,51
2019-03-15T09:36:50.240Z,51
2019-03-15T09:37:47.796Z,53
2019-03-15T09:38:46.693Z,52
2019-03-15T09:39:46.706Z,52
2019-03-15T09:40:46.730Z,52
2019-03-15T09:41:46.759Z,51
2019-03-15T09:42:46.751Z,53
2019-03-15T09:43:46.735Z,52
2019-03-15T09:44:46.746Z,52
2019-03-15T09:45:46.779Z,52
2019-03-15T09:46:46.729Z,51
2019-03-15T09:47:46.755Z,51
2019-03-15T09:48:46.790Z,52
2019-03-15T09:49:46.771Z,52
2019-03-15T09:50:51.380Z,52
2019-03-15T09:51:46.724Z,51
2019-03-15T09:52:46.768Z,50
2019-03-15T09:53:46.794Z,51
2019-03-15T09:54:46.771Z,50
2019-03-15T09:55:46.771Z,50
2019-03-15T09:56:46.808Z,49
2019-03-15T09:57:46.783Z,49
2019-03-15T09:58:46.787Z,51
2019-03-15T09:59:46.789Z,49
2019-03-15T10:00:46.850Z,49
2019-03-15T10:01:46.810Z,49
2019-03-15T10:02:46.821Z,49
2019-03-15T10:03:46.826Z,49
2019-03-15T10:04:46.865Z,49
2019-03-15T10:05:46.824Z,49
2019-03-15T10:06:46.890Z,48
2019-03-15T10:07:46.834Z,49
2019-03-15T10:08:46.833Z,49
2019-03-15T10:09:46.852Z,50
2019-03-15T10:10:49.075Z,50
2019-03-15T10:11:46.853Z,49
2019-03-15T10:12:46.860Z,47
2019-03-15T10:13:46.920Z,48
2019-03-15T10:14:46.949Z,48
2019-03-15T10:15:47.007Z,49
2019-03-15T10:16:46.926Z,49
2019-03-15T10:17:46.891Z,47
2019-03-15T10:18:50.163Z,47
2019-03-15T10:19:46.874Z,47
2019-03-15T10:20:46.888Z,47
2019-03-15T10:21:46.945Z,47
2019-03-15T10:23:02.909Z,48
2019-03-15T10:23:46.927Z,48
2019-03-15T10:24:46.925Z,48
2019-03-15T10:25:50.855Z,47
2019-03-15T10:26:46.935Z,47
2019-03-15T10:27:46.912Z,46
2019-03-15T10:28:46.914Z,47
2019-03-15T10:29:47.278Z,49
2019-03-15T10:30:46.984Z,47
2019-03-15T10:31:46.957Z,47
2019-03-15T10:32:46.952Z,48
2019-03-15T10:33:50.546Z,47
2019-03-15T10:34:46.952Z,47
2019-03-15T10:35:46.960Z,47
2019-03-15T10:36:46.989Z,47
2019-03-15T10:37:47.014Z,48
2019-03-15T10:38:47.009Z,49
2019-03-15T10:39:46.954Z,47
2019-03-15T10:40:47.000Z,48
2019-03-15T10:41:46.980Z,47
2019-03-15T10:42:47.014Z,47
2019-03-15T10:43:47.009Z,47
2019-03-15T10:44:47.038Z,48
2019-03-15T10:45:47.026Z,48
2019-03-15T10:46:47.035Z,48
2019-03-15T10:47:47.045Z,48
2019-03-15T10:48:47.007Z,48
2019-03-15T10:49:47.096Z,47
2019-03-15T10:50:47.062Z,48
2019-03-15T10:51:47.043Z,47
2019-03-15T10:52:47.032Z,47
2019-03-15T10:53:47.563Z,47
2019-03-15T10:54:47.055Z,47
2019-03-15T10:55:59.076Z,49
2019-03-15T10:56:47.070Z,48
2019-03-15T10:57:47.062Z,48
2019-03-15T10:58:47.066Z,47
2019-03-15T10:59:47.072Z,47
2019-03-15T11:00:47.067Z,48
2019-03-15T11:01:47.117Z,48
2019-03-15T11:02:47.107Z,47
2019-03-15T11:03:47.084Z,48
2019-03-15T11:04:47.112Z,48
2019-03-15T11:05:47.134Z,48
2019-03-15T11:06:47.321Z,48
2019-03-15T11:07:47.256Z,49
2019-03-15T11:08:47.138Z,49
2019-03-15T11:09:47.102Z,48
2019-03-15T11:10:47.250Z,47
2019-03-15T11:11:54.787Z,47
2019-03-15T11:12:47.129Z,47
2019-03-15T11:13:47.273Z,47
2019-03-15T11:14:47.111Z,47
2019-03-15T11:15:47.116Z,48
2019-03-15T11:16:47.153Z,48
2019-03-15T11:17:47.308Z,48
2019-03-15T11:18:47.167Z,49
2019-03-15T11:19:47.172Z,48
2019-03-15T11:20:47.160Z,47
2019-03-15T11:21:47.175Z,47
2019-03-15T11:22:47.144Z,48
2019-03-15T11:23:47.186Z,47
2019-03-15T11:24:47.186Z,47
2019-03-15T11:25:47.214Z,46
2019-03-15T11:26:47.271Z,47
2019-03-15T11:27:47.189Z,48
2019-03-15T11:28:47.228Z,47
2019-03-15T11:29:47.208Z,48
2019-03-15T11:30:47.314Z,50
2019-03-15T11:31:47.242Z,48
2019-03-15T11:32:47.191Z,47
2019-03-15T11:33:47.596Z,48
2019-03-15T11:34:47.219Z,48
2019-03-15T11:35:48.288Z,48
2019-03-15T11:36:57.660Z,47
2019-03-15T11:37:47.254Z,46
2019-03-15T11:38:47.233Z,46
2019-03-15T11:39:47.241Z,47
2019-03-15T11:40:47.256Z,47
2019-03-15T11:41:47.266Z,45
2019-03-15T11:42:47.263Z,46
2019-03-15T11:43:47.289Z,47
2019-03-15T11:44:47.278Z,50
2019-03-15T11:45:48.374Z,51
2019-03-15T11:46:47.328Z,52
2019-03-15T11:48:02.309Z,53
2019-03-15T11:48:48.367Z,52
2019-03-15T11:49:47.300Z,54
2019-03-15T11:50:47.325Z,55
2019-03-15T11:51:47.328Z,55
2019-03-15T11:52:47.350Z,54
2019-03-15T11:53:47.352Z,55
2019-03-15T11:54:49.726Z,56
2019-03-15T11:55:47.338Z,58
2019-03-15T11:56:50.503Z,57
2019-03-15T11:57:47.357Z,57
2019-03-15T11:58:49.833Z,57
2019-03-15T11:59:47.370Z,56
2019-03-15T12:00:47.406Z,58
2019-03-15T12:01:47.397Z,58
2019-03-15T12:02:47.440Z,57
2019-03-15T12:03:52.741Z,56
2019-03-15T12:04:47.407Z,56
2019-03-15T12:05:47.405Z,56
2019-03-15T12:06:47.433Z,56
2019-03-15T12:07:47.436Z,57
2019-03-15T12:08:47.499Z,54
2019-03-15T12:09:47.478Z,55
2019-03-15T12:10:47.419Z,54
2019-03-15T12:11:47.478Z,54
2019-03-15T12:12:47.458Z,54
2019-03-15T12:13:47.455Z,55
2019-03-15T12:14:47.492Z,55
2019-03-15T12:15:47.473Z,54
2019-03-15T12:16:48.622Z,54
2019-03-15T12:17:47.496Z,54
2019-03-15T12:18:49.695Z,55
2019-03-15T12:19:47.516Z,56
2019-03-15T12:20:49.221Z,57
2019-03-15T12:21:47.515Z,57
2019-03-15T12:22:47.538Z,56
2019-03-15T12:23:47.547Z,56
2019-03-15T12:24:47.569Z,56
2019-03-15T12:25:47.562Z,56
2019-03-15T12:26:47.545Z,58
2019-03-15T12:27:47.541Z,58
2019-03-15T12:28:47.603Z,58
2019-03-15T12:29:47.592Z,58
2019-03-15T12:30:47.586Z,58
2019-03-15T12:31:47.602Z,58
2019-03-15T12:32:47.620Z,60
2019-03-15T12:33:47.611Z,60
2019-03-15T12:34:48.626Z,60
2019-03-15T12:35:47.591Z,59
2019-03-15T12:36:47.629Z,59
2019-03-15T12:37:47.640Z,60
2019-03-15T12:38:47.619Z,60
2019-03-15T12:39:47.647Z,60
2019-03-15T12:40:47.745Z,59
2019-03-15T12:41:47.657Z,59
2019-03-15T12:42:47.638Z,61
2019-03-15T12:43:47.667Z,60
2019-03-15T12:44:47.691Z,60
2019-03-15T12:45:47.712Z,60
2019-03-15T12:46:47.673Z,61
2019-03-15T12:47:47.650Z,61
2019-03-15T12:48:47.690Z,60
2019-03-15T12:49:47.690Z,61
2019-03-15T12:50:47.712Z,62
2019-03-15T12:51:47.695Z,61
2019-03-15T12:52:48.654Z,62
2019-03-15T12:53:47.690Z,62
2019-03-15T12:54:47.702Z,62
2019-03-15T12:55:47.683Z,61
2019-03-15T12:56:53.411Z,62
2019-03-15T12:57:49.102Z,61
2019-03-15T12:58:47.714Z,62
2019-03-15T12:59:47.732Z,62
2019-03-15T13:00:47.739Z,63
2019-03-15T13:01:47.734Z,64
2019-03-15T13:02:47.774Z,63
2019-03-15T13:03:47.749Z,64
2019-03-15T13:04:47.797Z,64
2019-03-15T13:05:55.085Z,64
2019-03-15T13:06:47.756Z,65
2019-03-15T13:07:47.758Z,66
2019-03-15T13:08:47.992Z,66
2019-03-15T13:09:47.796Z,65
2019-03-15T13:10:47.820Z,65
2019-03-15T13:11:47.813Z,65
2019-03-15T13:12:47.814Z,65
2019-03-15T13:13:50.681Z,65
2019-03-15T13:14:47.797Z,65
2019-03-15T13:15:47.809Z,65
2019-03-15T13:16:47.878Z,64
2019-03-15T13:17:47.805Z,64
2019-03-15T13:19:03.416Z,64
2019-03-15T13:19:54.804Z,65
2019-03-15T13:20:47.868Z,65
2019-03-15T13:21:47.911Z,66
2019-03-15T13:22:50.426Z,66
2019-03-15T13:23:47.839Z,66
2019-03-15T13:24:47.842Z,67
2019-03-15T13:25:47.871Z,68
2019-03-15T13:26:47.864Z,67
2019-03-15T13:27:47.866Z,67
2019-03-15T13:28:47.848Z,67
2019-03-15T13:29:47.894Z,68
2019-03-15T13:31:47.921Z,64
2019-03-15T13:32:47.888Z,64
2019-03-15T13:33:48.151Z,65
2019-03-15T13:34:47.876Z,65
2019-03-15T13:35:47.901Z,66
2019-03-15T13:36:47.892Z,67
2019-03-15T13:37:48.039Z,66
2019-03-15T13:38:47.919Z,66
2019-03-15T13:39:47.921Z,67
2019-03-15T13:40:47.916Z,66
2019-03-15T13:41:47.907Z,65
2019-03-15T13:42:47.927Z,65
2019-03-15T13:43:47.899Z,66
2019-03-15T13:44:47.934Z,66
2019-03-15T13:45:47.928Z,66
2019-03-15T13:46:47.971Z,66
2019-03-15T13:47:47.945Z,66
2019-03-15T13:48:47.952Z,65
2019-03-15T13:49:47.943Z,65
2019-03-15T13:50:47.952Z,65
2019-03-15T13:51:47.974Z,65
2019-03-15T13:52:48.013Z,65
2019-03-15T13:53:47.972Z,67
2019-03-15T13:54:48.066Z,67
2019-03-15T13:55:48.001Z,66
2019-03-15T13:56:48.534Z,65
2019-03-15T13:57:48.034Z,65
2019-03-15T13:58:56.962Z,67
2019-03-15T13:59:48.061Z,68
2019-03-15T14:00:48.007Z,68
2019-03-15T14:01:48.010Z,68
2019-03-15T14:02:48.040Z,70
2019-03-15T14:03:48.035Z,71
2019-03-15T14:04:48.039Z,72
2019-03-15T14:05:48.073Z,69
2019-03-15T14:06:48.057Z,69
2019-03-15T14:07:48.108Z,67
2019-03-15T14:08:48.077Z,68
2019-03-15T14:09:48.087Z,69
2019-03-15T14:10:49.844Z,68
2019-03-15T14:11:48.104Z,67
2019-03-15T14:12:48.103Z,67
2019-03-15T14:13:48.131Z,68
2019-03-15T14:14:48.136Z,68
2019-03-15T14:15:48.158Z,67
2019-03-15T14:16:48.142Z,67